Time,TemperatureF,DewpointF,PressureIn,WindDirection,WindDirectionDegrees,WindSpeedMPH,WindSpeedGustMPH,Humidity,HourlyPrecipIn,Conditions,Clouds,dailyrainin,SoftwareType,DateUTC
2013-05-15 00:04:00,72.4,63.0,30.14,ENE,63,5.0,-999.0,73,-99.99,,,0.00,weatherlink.com 1.10,2013-05-15 04:04:00,
2013-05-15 00:19:00,72.3,63.0,30.14,ENE,62,5.0,-999.0,73,-99.99,,,0.00,weatherlink.com 1.10,2013-05-15 04:19:00,
2013-05-15 00:34:00,72.1,63.0,30.14,ENE,69,3.0,-999.0,72,-99.99,,,0.00,weatherlink.com 1.10,2013-05-15 04:34:00,
2013-05-15 00:49:00,72.0,63.0,30.14,ENE,68,4.0,-999.0,74,-99.99,,,0.00,weatherlink.com 1.10,2013-05-15 04:49:00,
2013-05-15 01:04:00,72.0,63.0,30.14,ENE,69,3.0,-999.0,72,-99.99,,,0.00,weatherlink.com 1.10,2013-05-15 05:04:00,
2013-05-15 01:19:00,72.0,62.0,30.14,ESE,121,2.0,-999.0,70,-99.99,,,0.00,weatherlink.com 1.10,2013-05-15 05:19:00,
2013-05-15 01:34:00,72.1,62.0,30.14,ESE,121,1.0,-999.0,71,-99.99,,,0.00,weatherlink.com 1.10,2013-05-15 05:34:00,
2013-05-15 01:49:00,72.1,62.0,30.14,ESE,120,2.0,-999.0,70,-99.99,,,0.00,weatherlink.com 1.10,2013-05-15 05:49:00,
2013-05-15 02:04:00,72.2,62.0,30.13,East,88,4.0,-999.0,71,-99.99,,,0.00,weatherlink.com 1.10,2013-05-15 06:04:00,
2013-05-15 02:19:00,72.1,62.0,30.13,East,94,4.0,-999.0,71,-99.99,,,0.00,weatherlink.com 1.10,2013-05-15 06:19:00,
2013-05-15 02:34:00,71.9,62.0,30.12,East,92,7.0,-999.0,71,-99.99,,,0.00,weatherlink.com 1.10,2013-05-15 06:34:00,
2013-05-15 02:49:00,71.9,62.0,30.12,East,89,4.0,-999.0,72,-99.99,,,0.00,weatherlink.com 1.10,2013-05-15 06:49:00,
2013-05-15 03:04:00,71.7,63.0,30.12,East,90,5.0,-999.0,73,-99.99,,,0.00,weatherlink.com 1.10,2013-05-15 07:04:00,
2013-05-15 03:19:00,71.6,63.0,30.12,East,90,4.0,-999.0,73,-99.99,,,0.00,weatherlink.com 1.10,2013-05-15 07:19:00,
2013-05-15 03:34:00,71.3,62.0,30.12,East,98,3.0,-999.0,73,-99.99,,,0.00,weatherlink.com 1.10,2013-05-15 07:34:00,
2013-05-15 03:49:00,71.2,62.0,30.11,SE,129,4.0,-999.0,72,-99.99,,,0.00,weatherlink.com 1.10,2013-05-15 07:49:00,
2013-05-15 04:04:00,71.1,62.0,30.11,ESE,107,3.0,-999.0,72,-99.99,,,0.00,weatherlink.com 1.10,2013-05-15 08:04:00,
2013-05-15 04:19:00,71.1,62.0,30.12,ESE,109,2.0,-999.0,73,-99.99,,,0.00,weatherlink.com 1.10,2013-05-15 08:19:00,
2013-05-15 04:34:00,70.9,62.0,30.11,SE,126,3.0,-999.0,74,-99.99,,,0.00,weatherlink.com 1.10,2013-05-15 08:34:00,
2013-05-15 04:49:00,70.8,63.0,30.11,ESE,102,1.0,-999.0,75,-99.99,,,0.00,weatherlink.com 1.10,2013-05-15 08:49:00,
2013-05-15 05:04:00,70.7,63.0,30.11,East,99,3.0,-999.0,76,-99.99,,,0.00,weatherlink.com 1.10,2013-05-15 09:04:00,
2013-05-15 05:19:00,70.6,62.0,30.11,ESE,104,3.0,-999.0,75,-99.99,,,0.00,weatherlink.com 1.10,2013-05-15 09:19:00,
2013-05-15 05:34:00,70.3,62.0,30.11,ESE,107,1.0,-999.0,76,-99.99,,,0.00,weatherlink.com 1.10,2013-05-15 09:34:00,
2013-05-15 05:49:00,70.1,62.0,30.12,ESE,107,1.0,-999.0,76,-99.99,,,0.00,weatherlink.com 1.10,2013-05-15 09:49:00,
2013-05-15 06:04:00,70.1,62.0,30.13,ESE,107,1.0,-999.0,76,-99.99,,,0.00,weatherlink.com 1.10,2013-05-15 10:04:00,
2013-05-15 06:19:00,70.0,63.0,30.13,ESE,107,0.0,-999.0,77,-99.99,,,0.00,weatherlink.com 1.10,2013-05-15 10:19:00,
2013-05-15 06:34:00,69.8,62.0,30.13,ESE,109,1.0,-999.0,76,-99.99,,,0.00,weatherlink.com 1.10,2013-05-15 10:34:00,
2013-05-15 06:49:00,69.7,62.0,30.14,ESE,109,1.0,-999.0,77,-99.99,,,0.00,weatherlink.com 1.10,2013-05-15 10:49:00,
2013-05-15 07:04:00,70.0,63.0,30.14,ESE,109,0.0,-999.0,77,-99.99,,,0.00,weatherlink.com 1.10,2013-05-15 11:04:00,
2013-05-15 07:19:00,70.7,63.0,30.14,ESE,109,0.0,-999.0,76,-99.99,,,0.00,weatherlink.com 1.10,2013-05-15 11:19:00,
2013-05-15 07:34:00,71.8,64.0,30.14,ESE,109,1.0,-999.0,75,-99.99,,,0.00,weatherlink.com 1.10,2013-05-15 11:34:00,
2013-05-15 07:49:00,72.2,63.0,30.14,ESE,109,2.0,-999.0,73,-99.99,,,0.00,weatherlink.com 1.10,2013-05-15 11:49:00,
2013-05-15 08:04:00,72.4,63.0,30.14,ESE,109,3.0,-999.0,73,-99.99,,,0.00,weatherlink.com 1.10,2013-05-15 12:04:00,
2013-05-15 08:19:00,72.4,63.0,30.15,ESE,109,3.0,-999.0,73,-99.99,,,0.00,weatherlink.com 1.10,2013-05-15 12:19:00,
2013-05-15 08:49:00,74.1,62.0,30.16,SE,134,3.0,-999.0,67,-99.99,,,0.00,weatherlink.com 1.10,2013-05-15 12:49:00,
2013-05-15 09:04:00,74.8,62.0,30.16,SE,132,2.0,-999.0,64,-99.99,,,0.00,weatherlink.com 1.10,2013-05-15 13:04:00,
2013-05-15 09:19:00,75.4,61.0,30.16,SSE,149,1.0,-999.0,62,-99.99,,,0.00,weatherlink.com 1.10,2013-05-15 13:19:00,
2013-05-15 09:34:00,76.0,62.0,30.16,SSE,154,1.0,-999.0,62,-99.99,,,0.00,weatherlink.com 1.10,2013-05-15 13:34:00,
2013-05-15 10:04:00,76.3,62.0,30.16,SSE,150,3.0,-999.0,61,-99.99,,,0.00,weatherlink.com 1.10,2013-05-15 14:04:00,
2013-05-15 10:19:00,76.7,61.0,30.16,SE,140,3.0,-999.0,58,-99.99,,,0.00,weatherlink.com 1.10,2013-05-15 14:19:00,
2013-05-15 10:34:00,77.0,61.0,30.17,South,175,1.0,-999.0,58,-99.99,,,0.00,weatherlink.com 1.10,2013-05-15 14:34:00,
2013-05-15 10:49:00,77.1,62.0,30.16,SSE,150,1.0,-999.0,59,-99.99,,,0.00,weatherlink.com 1.10,2013-05-15 14:49:00,
2013-05-15 11:04:00,76.9,61.0,30.16,SSE,154,2.0,-999.0,58,-99.99,,,0.00,weatherlink.com 1.10,2013-05-15 15:04:00,
2013-05-15 11:19:00,76.8,57.0,30.16,East,95,2.0,-999.0,50,-99.99,,,0.00,weatherlink.com 1.10,2013-05-15 15:19:00,
2013-05-15 11:34:00,77.2,58.0,30.16,East,94,2.0,-999.0,51,-99.99,,,0.00,weatherlink.com 1.10,2013-05-15 15:34:00,
2013-05-15 11:49:00,77.3,56.0,30.16,East,92,7.0,-999.0,48,-99.99,,,0.00,weatherlink.com 1.10,2013-05-15 15:49:00,
2013-05-15 12:04:00,77.5,57.0,30.16,East,101,5.0,-999.0,49,-99.99,,,0.00,weatherlink.com 1.10,2013-05-15 16:04:00,
2013-05-15 12:34:00,78.5,57.0,30.15,SE,128,4.0,-999.0,48,-99.99,,,0.00,weatherlink.com 1.10,2013-05-15 16:34:00,
2013-05-15 13:04:00,78.9,57.0,30.14,East,87,5.0,-999.0,48,-99.99,,,0.00,weatherlink.com 1.10,2013-05-15 17:04:00,
2013-05-15 13:34:00,79.3,56.0,30.12,NE,34,3.0,-999.0,45,-99.99,,,0.00,weatherlink.com 1.10,2013-05-15 17:34:00,
2013-05-15 13:49:00,80.0,59.0,30.12,ESE,119,1.0,-999.0,48,-99.99,,,0.00,weatherlink.com 1.10,2013-05-15 17:49:00,
2013-05-15 14:04:00,80.1,57.0,30.11,ENE,67,10.0,-999.0,45,-99.99,,,0.00,weatherlink.com 1.10,2013-05-15 18:04:00,
2013-05-15 14:19:00,80.5,57.0,30.11,SE,126,2.0,-999.0,44,-99.99,,,0.00,weatherlink.com 1.10,2013-05-15 18:19:00,
2013-05-15 14:34:00,80.8,58.0,30.11,East,88,7.0,-999.0,46,-99.99,,,0.00,weatherlink.com 1.10,2013-05-15 18:34:00,
2013-05-15 15:04:00,80.5,64.0,30.09,WNW,289,1.0,-999.0,57,-99.99,,,0.00,weatherlink.com 1.10,2013-05-15 19:04:00,
2013-05-15 15:19:00,81.4,64.0,30.09,NW,312,2.0,-999.0,55,-99.99,,,0.00,weatherlink.com 1.10,2013-05-15 19:19:00,
2013-05-15 15:49:00,80.7,65.0,30.08,West,259,5.0,-999.0,59,-99.99,,,0.00,weatherlink.com 1.10,2013-05-15 19:49:00,
2013-05-15 16:04:00,80.8,64.0,30.07,WNW,290,3.0,-999.0,57,-99.99,,,0.00,weatherlink.com 1.10,2013-05-15 20:04:00,
2013-05-15 16:19:00,80.0,64.0,30.06,WNW,300,2.0,-999.0,58,-99.99,,,0.00,weatherlink.com 1.10,2013-05-15 20:19:00,
2013-05-15 16:34:00,79.9,64.0,30.06,NW,307,5.0,-999.0,58,-99.99,,,0.00,weatherlink.com 1.10,2013-05-15 20:34:00,
2013-05-15 16:49:00,79.5,64.0,30.06,NW,322,10.0,-999.0,60,-99.99,,,0.00,weatherlink.com 1.10,2013-05-15 20:49:00,
2013-05-15 17:04:00,79.5,64.0,30.05,NW,323,5.0,-999.0,60,-99.99,,,0.00,weatherlink.com 1.10,2013-05-15 21:04:00,
2013-05-15 17:19:00,79.2,65.0,30.05,NNW,327,6.0,-999.0,63,-99.99,,,0.00,weatherlink.com 1.10,2013-05-15 21:19:00,
2013-05-15 17:34:00,78.9,66.0,30.05,WNW,300,9.0,-999.0,64,-99.99,,,0.00,weatherlink.com 1.10,2013-05-15 21:34:00,
2013-05-15 17:49:00,78.7,65.0,30.05,NNW,342,6.0,-999.0,64,-99.99,,,0.00,weatherlink.com 1.10,2013-05-15 21:49:00,
2013-05-15 18:04:00,78.7,66.0,30.04,NNW,337,6.0,-999.0,66,-99.99,,,0.00,weatherlink.com 1.10,2013-05-15 22:04:00,
2013-05-15 18:19:00,78.0,66.0,30.04,NNW,337,4.0,-999.0,66,-99.99,,,0.00,weatherlink.com 1.10,2013-05-15 22:19:00,
2013-05-15 18:34:00,77.6,65.0,30.03,NNW,332,6.0,-999.0,66,-99.99,,,0.00,weatherlink.com 1.10,2013-05-15 22:34:00,
2013-05-15 18:49:00,77.4,64.0,30.03,NNW,347,12.0,-999.0,63,-99.99,,,0.00,weatherlink.com 1.10,2013-05-15 22:49:00,
2013-05-15 19:04:00,76.9,64.0,30.03,North,350,12.0,-999.0,65,-99.99,,,0.00,weatherlink.com 1.10,2013-05-15 23:04:00,
2013-05-15 19:19:00,76.7,64.0,30.03,NNW,345,6.0,-999.0,66,-99.99,,,0.00,weatherlink.com 1.10,2013-05-15 23:19:00,
2013-05-15 19:49:00,76.3,65.0,30.03,North,355,5.0,-999.0,68,-99.99,,,0.00,weatherlink.com 1.10,2013-05-15 23:49:00,
2013-05-15 20:04:00,76.2,65.0,30.02,North,349,3.0,-999.0,68,-99.99,,,0.00,weatherlink.com 1.10,2013-05-16 00:04:00,
2013-05-15 20:19:00,76.1,65.0,30.03,North,5,6.0,-999.0,69,-99.99,,,0.00,weatherlink.com 1.10,2013-05-16 00:19:00,
2013-05-15 20:34:00,76.0,65.0,30.03,North,5,3.0,-999.0,69,-99.99,,,0.00,weatherlink.com 1.10,2013-05-16 00:34:00,
2013-05-15 20:49:00,75.8,65.0,30.04,North,360,1.0,-999.0,69,-99.99,,,0.00,weatherlink.com 1.10,2013-05-16 00:49:00,
2013-05-15 21:04:00,75.6,65.0,30.04,North,360,2.0,-999.0,69,-99.99,,,0.00,weatherlink.com 1.10,2013-05-16 01:04:00,
2013-05-15 21:19:00,75.5,65.0,30.04,North,5,0.0,-999.0,70,-99.99,,,0.00,weatherlink.com 1.10,2013-05-16 01:19:00,
2013-05-15 21:49:00,75.1,65.0,30.05,North,5,4.0,-999.0,71,-99.99,,,0.00,weatherlink.com 1.10,2013-05-16 01:49:00,
2013-05-15 22:04:00,74.9,64.0,30.05,North,5,6.0,-999.0,69,-99.99,,,0.00,weatherlink.com 1.10,2013-05-16 02:04:00,
2013-05-15 22:34:00,74.7,64.0,30.06,North,360,3.0,-999.0,69,-99.99,,,0.00,weatherlink.com 1.10,2013-05-16 02:34:00,
2013-05-15 22:49:00,74.6,64.0,30.06,North,11,3.0,-999.0,70,-99.99,,,0.00,weatherlink.com 1.10,2013-05-16 02:49:00,
2013-05-15 23:04:00,74.3,64.0,30.06,NNE,12,4.0,-999.0,71,-99.99,,,0.00,weatherlink.com 1.10,2013-05-16 03:04:00,
2013-05-15 23:19:00,74.1,65.0,30.06,NNE,13,2.0,-999.0,72,-99.99,,,0.00,weatherlink.com 1.10,2013-05-16 03:19:00,
2013-05-15 23:49:00,74.4,66.0,30.05,ENE,58,3.0,-999.0,74,-99.99,,,0.00,weatherlink.com 1.10,2013-05-16 03:49:00,